Time;durP1;ratioP1;P1;durP2;ratioP2;P2;SDS_P1;SDS_P2;PMS_P1;PMS_P2;Temp;Humidity;BMP_temperature;BMP_pressure;BME280_temperature;BME280_humidity;BME280_pressure;Samples;Min_cycle;Max_cycle;Signal;HPM_P1;HPM_P2
2023/05/25 00:02:03;;;;;;;10.82;4.15;;;;;;;13.65;46.44;101158.44;4142297;28;20050;-76
2023/05/25 00:04:09;;;;;;;12.98;3.70;;;;;;;13.60;46.83;101155.75;4139396;28;20073;-76
2023/05/25 00:06:30;;;;;;;14.32;4.38;;;;;;;13.58;47.15;101162.72;4128473;28;20054;-76
2023/05/25 00:08:54;;;;;;;10.57;3.90;;;;;;;13.58;47.07;101173.16;4126536;28;20109;-78
2023/05/25 00:10:57;;;;;;;12.80;4.10;;;;;;;13.62;47.38;101153.16;4129229;28;20516;-76
2023/05/25 00:13:00;;;;;;;13.32;4.40;;;;;;;13.56;47.50;101156.56;4127307;28;20050;-76
2023/05/25 00:15:05;;;;;;;17.58;4.47;;;;;;;13.47;48.26;101159.06;4129071;28;20448;-76
2023/05/25 00:17:09;;;;;;;15.18;5.00;;;;;;;13.44;48.68;101164.25;4129079;28;20043;-76
2023/05/25 00:19:12;;;;;;;13.55;4.25;;;;;;;13.45;48.77;101163.41;4144429;28;20068;-77
2023/05/25 00:21:15;;;;;;;12.73;4.85;;;;;;;13.37;48.92;101159.81;4128939;28;20039;-77
2023/05/25 00:23:18;;;;;;;13.52;4.60;;;;;;;13.40;49.06;101162.47;4128498;28;20038;-77
2023/05/25 00:25:21;;;;;;;12.32;4.85;;;;;;;13.34;49.46;101160.63;4129011;28;20042;-78
2023/05/25 00:27:24;;;;;;;13.75;4.22;;;;;;;13.30;49.57;101157.94;4127863;28;20034;-76
2023/05/25 00:29:27;;;;;;;14.48;5.05;;;;;;;13.31;49.43;101151.88;4143751;28;20124;-77
2023/05/25 00:31:32;;;;;;;13.93;4.55;;;;;;;13.28;49.84;101152.69;4142719;28;20049;-77
2023/05/25 00:33:35;;;;;;;15.73;5.00;;;;;;;13.22;50.32;101158.69;4129034;28;20042;-76
2023/05/25 00:35:38;;;;;;;12.95;4.55;;;;;;;13.19;50.35;101155.19;4146693;28;20034;-76
2023/05/25 00:37:41;;;;;;;11.70;5.07;;;;;;;13.14;50.20;101154.22;4131599;28;20045;-75
2023/05/25 00:39:44;;;;;;;13.02;5.13;;;;;;;13.21;50.17;101151.72;4127166;28;20113;-77
2023/05/25 00:41:49;;;;;;;12.27;5.03;;;;;;;13.14;50.56;101160.34;4130489;28;20050;-77
2023/05/25 00:43:52;;;;;;;16.55;6.30;;;;;;;13.13;50.53;101149.84;4131198;28;20109;-76
2023/05/25 00:45:56;;;;;;;19.90;4.93;;;;;;;13.07;50.65;101154.13;4131335;28;20053;-76
2023/05/25 00:48:00;;;;;;;13.60;5.47;;;;;;;13.05;50.75;101152.34;4129880;28;20046;-77
2023/05/25 00:50:06;;;;;;;;;;;;;;;12.94;50.82;101154.81;4131195;28;20539;-76
2023/05/25 00:52:10;;;;;;;;;;;;;;;12.93;51.27;101156.50;4143136;28;19929;-77
2023/05/25 00:54:14;;;;;;;13.50;5.05;;;;;;;12.91;51.19;101163.44;4145744;28;19956;-76
2023/05/25 00:56:21;;;;;;;13.93;4.65;;;;;;;12.91;51.24;101163.44;4130265;28;20042;-76
2023/05/25 00:58:27;;;;;;;14.77;4.57;;;;;;;12.95;51.78;101160.88;4131505;28;20046;-77
2023/05/25 01:00:32;;;;;;;16.95;4.57;;;;;;;12.88;51.54;101157.31;4129940;28;20062;-76
2023/05/25 01:02:35;;;;;;;13.18;5.10;;;;;;;12.79;51.88;101163.28;4143330;28;20041;-76
2023/05/25 01:04:43;;;;;;;11.40;4.53;;;;;;;12.83;51.80;101162.44;4146379;28;20037;-78
2023/05/25 01:06:48;;;;;;;13.70;4.60;;;;;;;12.80;52.04;101161.53;4126121;28;20031;-76
2023/05/25 01:08:59;;;;;;;15.45;4.75;;;;;;;12.70;51.94;101169.22;4131285;28;20073;-75
2023/05/25 01:11:04;;;;;;;15.18;4.78;;;;;;;12.66;52.44;101166.50;4129901;28;20070;-75
2023/05/25 01:13:09;;;;;;;15.30;5.22;;;;;;;12.55;52.63;101167.19;4144707;28;20524;-76
2023/05/25 01:15:12;;;;;;;18.10;4.60;;;;;;;12.47;52.94;101161.00;4145691;28;20076;-75
2023/05/25 01:17:15;;;;;;;14.32;5.10;;;;;;;12.50;53.59;101167.97;4129722;28;20073;-75
2023/05/25 01:19:18;;;;;;;14.77;5.80;;;;;;;12.50;53.32;101175.78;4146111;28;20030;-76
2023/05/25 01:21:28;;;;;;;15.73;4.30;;;;;;;12.45;53.03;101170.50;4113682;28;20162;-75
2023/05/25 01:23:36;;;;;;;15.15;5.40;;;;;;;12.52;53.25;101169.75;4145332;28;21109;-75
2023/05/25 01:25:51;;;;;;;18.08;5.47;;;;;;;12.43;53.65;101171.34;4131045;28;20042;-77
2023/05/25 01:27:58;;;;;;;12.73;5.05;;;;;;;12.33;53.96;101172.91;4130598;28;20045;-76
2023/05/25 01:30:03;;;;;;;16.35;4.78;;;;;;;12.39;53.75;101180.81;4146184;28;20078;-75
2023/05/25 01:32:08;;;;;;;14.75;5.25;;;;;;;12.35;54.24;101177.28;4145705;28;20064;-76
2023/05/25 01:34:13;;;;;;;18.70;4.75;;;;;;;12.32;53.97;101178.94;4130076;28;20137;-75
2023/05/25 01:36:16;;;;;;;15.32;5.28;;;;;;;12.32;54.44;101173.72;4146052;28;20033;-76
2023/05/25 01:38:20;;;;;;;15.15;5.10;;;;;;;12.23;54.82;101171.84;4131234;28;20069;-76
2023/05/25 01:40:23;;;;;;;11.10;4.30;;;;;;;12.24;54.26;101181.41;4130496;28;20053;-75
2023/05/25 01:42:26;;;;;;;13.65;4.78;;;;;;;12.15;54.52;101176.91;4128548;28;20042;-76
2023/05/25 01:44:29;;;;;;;16.60;5.20;;;;;;;12.17;54.46;101183.00;4127915;28;20034;-75
2023/05/25 01:46:37;;;;;;;12.00;5.18;;;;;;;12.04;55.31;101181.88;4128956;28;20452;-75
2023/05/25 01:48:49;;;;;;;17.70;5.30;;;;;;;12.13;54.59;101181.19;4144697;28;20034;-77
2023/05/25 01:50:58;;;;;;;16.58;5.38;;;;;;;12.13;54.44;101191.63;4127348;28;20034;-76
2023/05/25 01:53:04;;;;;;;18.23;5.00;;;;;;;12.10;55.12;101180.28;4143765;28;20030;-76
2023/05/25 01:55:12;;;;;;;13.20;4.57;;;;;;;12.01;54.61;101180.97;4142052;28;20136;-75
2023/05/25 01:57:18;;;;;;;17.52;4.60;;;;;;;11.98;55.16;101170.50;4126311;28;20567;-76
2023/05/25 01:59:22;;;;;;;15.35;5.68;;;;;;;11.95;55.38;101180.84;4143650;28;20067;-75
2023/05/25 02:01:28;;;;;;;14.15;5.65;;;;;;;11.94;55.63;101182.56;4124731;28;20119;-76
2023/05/25 02:03:31;;;;;;;11.52;4.47;;;;;;;11.85;55.96;101182.34;4141761;28;20180;-75
2023/05/25 02:05:34;;;;;;;18.17;5.65;;;;;;;11.93;55.70;101186.03;4124247;28;20051;-76
2023/05/25 02:07:37;;;;;;;13.18;4.75;;;;;;;11.87;55.39;101184.16;4111930;28;20062;-76
2023/05/25 02:09:40;;;;;;;15.48;5.13;;;;;;;11.86;56.44;101191.94;4146921;28;20030;-76
2023/05/25 02:11:44;;;;;;;18.40;5.95;;;;;;;11.80;56.15;101182.25;4129662;28;20718;-76
2023/05/25 02:13:47;;;;;;;13.70;5.43;;;;;;;11.80;55.98;101182.25;4129332;28;20034;-76
2023/05/25 02:15:50;;;;;;;15.00;5.45;;;;;;;11.73;56.19;101182.09;4143857;28;20486;-76
2023/05/25 02:17:56;;;;;;;12.13;4.47;;;;;;;11.74;56.30;101179.53;4125072;28;20034;-75
2023/05/25 02:19:59;;;;;;;13.10;5.28;;;;;;;11.63;56.51;101187.09;4125155;28;20042;-76
2023/05/25 02:22:04;;;;;;;17.92;5.82;;;;;;;11.62;57.01;101176.66;4141764;28;20525;-76
2023/05/25 02:24:08;;;;;;;;;;;;;;;11.63;57.49;101184.50;4127302;28;20042;-76
2023/05/25 02:26:11;;;;;;;13.95;4.75;;;;;;;11.64;56.67;101180.19;4128551;28;20411;-76
2023/05/25 02:28:15;;;;;;;19.17;5.00;;;;;;;11.66;57.09;101171.53;4127432;28;20045;-77
2023/05/25 02:30:18;;;;;;;15.95;4.75;;;;;;;11.68;56.82;101176.78;4142436;28;20109;-78
2023/05/25 02:32:21;;;;;;;12.48;4.40;;;;;;;11.58;56.69;101180.94;4126687;28;20077;-75
2023/05/25 02:34:25;;;;;;;15.35;4.82;;;;;;;11.59;57.04;101179.19;4127389;28;20062;-76
2023/05/25 02:36:28;;;;;;;13.57;4.30;;;;;;;11.59;57.35;101179.19;4143641;28;20049;-77
2023/05/25 02:38:31;;;;;;;12.00;3.85;;;;;;;11.66;56.88;101181.94;4142942;28;20129;-76
2023/05/25 02:40:33;;;;;;;9.18;3.88;;;;;;;11.83;56.57;101182.31;4142854;28;20046;-76
2023/05/25 02:42:36;;;;;;;12.98;4.28;;;;;;;11.64;56.30;101172.38;4126877;28;20050;-76
2023/05/25 02:44:41;;;;;;;12.48;5.03;;;;;;;11.68;56.02;101177.69;4127425;28;20074;-75
2023/05/25 02:46:44;;;;;;;;;;;;;;;11.47;57.53;101179.81;4143769;28;20034;-75
2023/05/25 02:48:47;;;;;;;15.82;5.13;;;;;;;11.43;57.53;101180.56;4144367;28;19925;-76
2023/05/25 02:50:50;;;;;;;14.18;5.13;;;;;;;11.46;57.69;101176.34;4125111;28;20088;-75
2023/05/25 02:52:53;;;;;;;16.02;4.32;;;;;;;11.45;57.35;101177.16;4127133;28;20452;-73
2023/05/25 02:54:56;;;;;;;12.63;4.65;;;;;;;11.43;57.04;101178.84;4112554;28;20051;-73
2023/05/25 02:57:07;;;;;;;12.05;3.95;;;;;;;11.44;57.15;101178.00;4111284;28;20035;-74
2023/05/25 02:59:10;;;;;;;13.25;4.00;;;;;;;11.61;57.38;101178.38;4128763;28;20121;-73
2023/05/25 03:01:17;;;;;;;13.75;4.75;;;;;;;11.45;57.62;101174.56;4144781;28;20052;-73
2023/05/25 03:03:27;;;;;;;13.80;3.93;;;;;;;11.34;57.42;101174.31;4128098;28;20082;-75
2023/05/25 03:05:34;;;;;;;13.20;4.53;;;;;;;11.28;58.32;101178.53;4143699;28;20840;-75
2023/05/25 03:07:37;;;;;;;10.38;3.75;;;;;;;11.30;58.51;101179.41;4107154;28;20046;-73
2023/05/25 03:09:40;;;;;;;13.45;4.82;;;;;;;11.33;58.49;101184.69;4144668;28;20034;-72
2023/05/25 03:11:45;;;;;;;11.85;4.13;;;;;;;11.28;58.08;101186.31;4102557;28;20047;-74
2023/05/25 03:13:52;;;;;;;13.90;4.75;;;;;;;11.21;58.70;101179.22;4124220;28;20038;-75
2023/05/25 03:15:56;;;;;;;12.70;3.15;;;;;;;11.20;58.48;101174.84;4144135;28;20038;-73
2023/05/25 03:18:00;;;;;;;9.38;3.80;;;;;;;11.25;58.00;101183.66;4115878;28;20034;-73
2023/05/25 03:20:09;;;;;;;10.32;4.03;;;;;;;11.25;58.90;101183.66;4142406;28;20601;-73
2023/05/25 03:22:16;;;;;;;11.30;3.83;;;;;;;11.24;59.00;101184.50;4124681;28;20431;-73
2023/05/25 03:24:21;;;;;;;13.45;4.05;;;;;;;11.34;58.70;101184.72;4128453;28;20034;-73
2023/05/25 03:26:24;;;;;;;12.20;3.95;;;;;;;11.30;58.60;101182.03;4144014;28;20081;-72
2023/05/25 03:28:28;;;;;;;19.30;5.75;;;;;;;11.27;59.03;101185.47;4143982;28;20048;-73
2023/05/25 03:30:31;;;;;;;11.20;4.50;;;;;;;11.23;58.33;101182.72;4144021;28;20435;-73
2023/05/25 03:32:34;;;;;;;12.32;4.63;;;;;;;11.25;58.88;101187.13;4111865;28;20112;-73
2023/05/25 03:34:39;;;;;;;13.90;4.38;;;;;;;11.25;58.18;101196.66;4143856;28;20076;-73
2023/05/25 03:36:44;;;;;;;15.73;4.18;;;;;;;11.15;58.64;101185.16;4142131;28;20052;-73
2023/05/25 03:38:48;;;;;;;12.20;4.43;;;;;;;11.19;59.17;101187.00;4128000;28;20046;-73
2023/05/25 03:40:51;;;;;;;14.02;4.47;;;;;;;11.30;58.18;101185.53;4118230;28;20528;-77
2023/05/25 03:42:54;;;;;;;16.77;4.72;;;;;;;11.42;58.17;101191.81;4124882;28;20073;-73
2023/05/25 03:44:57;;;;;;;13.10;4.47;;;;;;;11.20;58.91;101195.66;4127021;28;20043;-73
2023/05/25 03:47:00;;;;;;;12.43;4.85;;;;;;;11.37;58.47;101201.28;4125086;28;20039;-73
2023/05/25 03:49:04;;;;;;;10.68;3.60;;;;;;;11.21;58.28;101200.03;4126323;28;20038;-76
2023/05/25 03:51:08;;;;;;;10.68;3.72;;;;;;;11.20;58.61;101206.06;4143089;28;20167;-75
2023/05/25 03:53:11;;;;;;;12.27;5.05;;;;;;;11.30;57.90;101203.75;4140708;28;21275;-75
2023/05/25 03:55:14;;;;;;;11.15;4.18;;;;;;;11.14;58.37;101206.81;4125755;28;20125;-76
2023/05/25 03:57:17;;;;;;;11.30;4.60;;;;;;;11.23;57.70;101208.75;4138850;28;20119;-76
2023/05/25 03:59:20;;;;;;;13.40;4.50;;;;;;;11.12;58.60;101218.91;4135693;28;20080;-76
2023/05/25 04:01:25;;;;;;;11.43;3.92;;;;;;;11.09;58.86;101221.44;4143192;28;20070;-75
2023/05/25 04:03:28;;;;;;;11.07;4.28;;;;;;;11.05;58.36;101220.47;4139357;28;20039;-75
2023/05/25 04:05:31;;;;;;;14.77;4.85;;;;;;;11.11;59.02;101214.53;4132585;28;20501;-75
2023/05/25 04:07:35;;;;;;;15.65;4.63;;;;;;;11.22;59.70;101222.63;4145511;28;20057;-78
2023/05/25 04:09:38;;;;;;;13.48;4.82;;;;;;;11.20;58.39;101229.50;4129318;28;20034;-72
2023/05/25 04:11:41;;;;;;;14.25;4.00;;;;;;;11.16;57.95;101229.44;4131322;28;20042;-71
2023/05/25 04:13:45;;;;;;;9.57;4.00;;;;;;;11.16;58.43;101228.56;4129964;28;20038;-72
2023/05/25 04:15:48;;;;;;;11.10;3.88;;;;;;;11.15;58.16;101232.88;4113710;28;20045;-72
2023/05/25 04:17:54;;;;;;;13.18;4.03;;;;;;;11.20;57.94;101245.13;4141787;28;20089;-72
2023/05/25 04:19:57;;;;;;;15.38;4.00;;;;;;;11.26;57.87;101248.75;4144387;28;20092;-72
2023/05/25 04:22:00;;;;;;;10.43;4.43;;;;;;;11.25;58.78;101243.53;4129443;28;20042;-72
2023/05/25 04:24:05;;;;;;;12.82;4.53;;;;;;;11.30;58.76;101245.41;4143443;28;20088;-72
2023/05/25 04:26:09;;;;;;;14.07;4.15;;;;;;;11.21;58.40;101247.75;4128437;28;20503;-71
2023/05/25 04:28:15;;;;;;;11.43;4.53;;;;;;;11.23;59.31;101247.78;4111476;28;20039;-72
2023/05/25 04:30:24;;;;;;;13.38;5.28;;;;;;;11.33;58.72;101249.78;4128187;28;20053;-72
2023/05/25 04:32:49;;;;;;;12.38;4.30;;;;;;;11.37;58.77;101254.22;4125291;28;20057;-72
2023/05/25 04:35:06;;;;;;;13.50;4.07;;;;;;;11.33;58.60;101252.38;4130726;28;20049;-71
2023/05/25 04:37:16;;;;;;;14.40;5.20;;;;;;;11.43;57.64;101249.13;4130778;28;20065;-72
2023/05/25 04:39:21;;;;;;;10.15;4.18;;;;;;;11.34;58.43;101251.53;4112792;28;20133;-72
2023/05/25 04:41:29;;;;;;;14.07;4.85;;;;;;;11.24;58.19;101249.56;4130155;28;20134;-72
2023/05/25 04:43:34;;;;;;;14.60;5.25;;;;;;;11.35;58.27;101248.97;4129831;28;20042;-72
2023/05/25 04:45:38;;;;;;;13.57;4.45;;;;;;;11.34;58.26;101256.75;4129952;28;20041;-71
2023/05/25 04:47:42;;;;;;;16.52;5.32;;;;;;;11.40;58.21;101251.69;4130326;28;20035;-72
2023/05/25 04:49:46;;;;;;;13.18;4.43;;;;;;;11.45;58.47;101244.88;4141786;28;20125;-71
2023/05/25 04:51:49;;;;;;;10.18;3.80;;;;;;;11.50;58.46;101251.03;4129315;28;20105;-72
2023/05/25 04:53:52;;;;;;;13.95;5.22;;;;;;;11.53;58.30;101245.94;4145655;28;20041;-72
2023/05/25 04:55:57;;;;;;;12.63;5.10;;;;;;;11.73;57.82;101244.63;4128896;28;20559;-73
2023/05/25 04:58:02;;;;;;;16.02;6.10;;;;;;;11.61;58.33;101243.50;4146432;28;20041;-71
2023/05/25 05:00:09;;;;;;;19.67;4.60;;;;;;;11.62;58.49;101249.56;4145941;28;20157;-72
2023/05/25 05:02:14;;;;;;;14.38;4.20;;;;;;;11.69;58.22;101252.34;4127761;28;20134;-72
2023/05/25 05:04:17;;;;;;;13.45;4.72;;;;;;;11.78;58.30;101243.84;4130138;28;20508;-72
2023/05/25 05:06:20;;;;;;;16.35;5.75;;;;;;;11.82;57.73;101256.09;4129302;28;20053;-72
2023/05/25 05:08:23;;;;;;;13.35;5.20;;;;;;;11.85;58.23;101258.78;4144959;28;20034;-73
2023/05/25 05:10:26;;;;;;;11.00;4.88;;;;;;;11.92;57.24;101264.16;4129508;28;20038;-72
2023/05/25 05:12:33;;;;;;;17.48;5.78;;;;;;;11.93;58.13;101265.88;4144396;28;20045;-72
2023/05/25 05:14:37;;;;;;;13.32;4.57;;;;;;;11.99;57.37;101261.72;4129457;28;20479;-72
2023/05/25 05:16:40;;;;;;;16.20;5.78;;;;;;;12.07;57.53;101254.06;4113623;28;20129;-72
2023/05/25 05:18:44;;;;;;;12.65;4.32;;;;;;;12.03;57.40;101266.16;4112459;28;20046;-72
2023/05/25 05:20:46;;;;;;;19.58;5.85;;;;;;;12.13;56.89;101267.22;4142110;23;20241;-69
2023/05/25 05:22:49;;;;;;;16.48;5.15;;;;;;;12.13;57.28;101264.59;4110409;28;20049;-69
2023/05/25 05:24:52;;;;;;;22.45;5.60;;;;;;;12.18;57.14;101262.13;4129861;28;20042;-70
2023/05/25 05:27:00;;;;;;;14.40;5.40;;;;;;;12.23;56.83;101266.56;4114183;28;20041;-70
2023/05/25 05:29:19;;;;;;;17.13;5.55;;;;;;;12.27;56.72;101259.69;4113674;28;20043;-69
2023/05/25 05:31:23;;;;;;;16.15;4.82;;;;;;;12.37;56.84;101252.94;4107232;28;20075;-70
2023/05/25 05:33:25;;;;;;;23.15;4.78;;;;;;;12.32;56.57;101259.78;4098283;28;20067;-70
2023/05/25 05:35:29;;;;;;;17.27;5.38;;;;;;;12.36;56.46;101256.38;4113444;28;20492;-69
2023/05/25 05:37:40;;;;;;;15.20;4.75;;;;;;;12.47;55.88;101253.97;4097465;29;20045;-69
2023/05/25 05:39:43;;;;;;;18.42;4.50;;;;;;;12.47;56.33;101260.09;4094707;29;20059;-69
2023/05/25 05:41:46;;;;;;;13.75;4.53;;;;;;;12.56;55.72;101257.66;4095972;29;20465;-69
2023/05/25 05:43:49;;;;;;;10.90;4.47;;;;;;;12.77;54.93;101251.06;4098559;28;20039;-69
2023/05/25 05:45:54;;;;;;;15.32;5.10;;;;;;;12.73;55.04;101257.97;4097026;29;20094;-69
2023/05/25 05:47:56;;;;;;;13.77;4.55;;;;;;;12.82;55.19;101261.56;4113262;28;20031;-69
2023/05/25 05:49:59;;;;;;;15.73;5.32;;;;;;;12.88;54.19;101259.97;4097218;28;20371;-69
2023/05/25 05:52:04;;;;;;;12.27;4.80;;;;;;;13.03;54.22;101268.91;4113809;28;20134;-69
2023/05/25 05:54:07;;;;;;;11.68;4.97;;;;;;;12.97;54.60;101261.84;4092335;29;20051;-69
2023/05/25 05:56:17;;;;;;;13.90;4.45;;;;;;;13.05;53.91;101261.97;4112183;28;20078;-69
2023/05/25 05:58:21;;;;;;;21.70;4.45;;;;;;;13.07;54.07;101270.72;4113099;28;20038;-69
2023/05/25 06:00:25;;;;;;;17.08;4.30;;;;;;;13.21;53.61;101266.59;4112966;28;20066;-70
2023/05/25 06:02:29;;;;;;;13.05;4.28;;;;;;;13.26;52.85;101270.19;4095775;29;20038;-69
2023/05/25 06:04:32;;;;;;;12.65;4.93;;;;;;;13.27;53.03;101274.56;4080635;29;20043;-69
2023/05/25 06:06:36;;;;;;;13.52;6.00;;;;;;;13.42;52.91;101276.56;4112566;28;20081;-70
2023/05/25 06:08:40;;;;;;;13.50;4.70;;;;;;;13.46;52.94;101267.00;4112988;28;20054;-69
2023/05/25 06:10:43;;;;;;;10.17;4.23;;;;;;;13.55;53.19;101269.78;4112761;28;20034;-69
2023/05/25 06:12:46;;;;;;;13.65;4.50;;;;;;;13.68;52.21;101267.34;4095997;29;20638;-69
2023/05/25 06:14:50;;;;;;;17.73;5.38;;;;;;;13.76;50.93;101268.34;4113026;28;20038;-69
2023/05/25 06:16:54;;;;;;;16.90;5.38;;;;;;;13.81;51.25;101284.94;4109828;28;20125;-69
2023/05/25 06:19:01;;;;;;;9.57;3.72;;;;;;;13.93;50.95;101279.00;4113131;28;20042;-69
2023/05/25 06:21:04;;;;;;;15.20;4.65;;;;;;;13.90;50.96;101285.09;4112566;28;20089;-70
2023/05/25 06:23:08;;;;;;;11.13;3.90;;;;;;;13.89;51.54;101285.94;4095874;29;20331;-69
2023/05/25 06:25:11;;;;;;;12.25;4.90;;;;;;;14.00;51.05;101274.75;4097217;28;20402;-69
2023/05/25 06:27:14;;;;;;;16.65;3.90;;;;;;;14.07;51.76;101279.22;4095937;28;20735;-69
2023/05/25 06:29:16;;;;;;;12.68;4.00;;;;;;;14.13;50.94;101290.63;4097941;28;20046;-69
2023/05/25 06:31:19;;;;;;;15.05;4.82;;;;;;;14.17;52.26;101288.94;4095729;28;20039;-68
2023/05/25 06:33:23;;;;;;;14.43;4.18;;;;;;;14.08;52.61;101291.44;4110095;28;20593;-69
2023/05/25 06:35:28;;;;;;;15.23;4.80;;;;;;;14.13;53.13;101288.03;4112479;28;20050;-69
2023/05/25 06:37:34;;;;;;;11.35;4.82;;;;;;;14.30;52.48;101296.06;4112483;28;20068;-69
2023/05/25 06:39:38;;;;;;;13.95;5.85;;;;;;;14.47;52.14;101292.75;4096240;29;20094;-69
2023/05/25 06:41:41;;;;;;;13.80;5.07;;;;;;;14.37;52.14;101296.13;4098573;28;20134;-69
2023/05/25 06:43:44;;;;;;;13.55;4.78;;;;;;;14.42;52.05;101304.94;4095748;29;20086;-69
2023/05/25 06:45:49;;;;;;;13.85;5.15;;;;;;;14.61;51.78;101308.63;4096412;28;20032;-69
2023/05/25 06:47:54;;;;;;;;;;;;;;;14.50;52.31;101305.91;4113076;28;20042;-69
2023/05/25 06:49:57;;;;;;;15.60;5.50;;;;;;;14.48;52.59;101311.13;4095807;29;19926;-68
2023/05/25 06:52:01;;;;;;;11.85;4.90;;;;;;;14.64;51.76;101304.31;4097679;28;20083;-69
2023/05/25 06:54:05;;;;;;;16.23;5.40;;;;;;;14.52;51.92;101295.47;4096945;29;20490;-68
2023/05/25 06:56:08;;;;;;;15.57;5.28;;;;;;;14.67;51.73;101300.88;4097367;28;20039;-69
2023/05/25 06:58:12;;;;;;;12.88;4.75;;;;;;;14.62;52.19;101303.44;4097941;28;20050;-69
2023/05/25 07:00:16;;;;;;;11.15;4.15;;;;;;;14.82;51.56;101297.53;4094442;29;20035;-69
2023/05/25 07:02:20;;;;;;;14.32;5.05;;;;;;;14.97;50.37;101305.56;4094262;28;20437;-69
2023/05/25 07:04:23;;;;;;;11.05;4.05;;;;;;;14.98;50.22;101293.31;4096212;28;20046;-69
2023/05/25 07:06:25;;;;;;;14.05;4.07;;;;;;;14.96;50.19;101297.69;4097844;28;20143;-69
2023/05/25 07:08:30;;;;;;;13.90;4.60;;;;;;;15.08;50.49;101296.91;4095079;29;20537;-69
2023/05/25 07:10:34;;;;;;;11.93;4.65;;;;;;;15.24;49.37;101292.69;4096491;29;20480;-68
2023/05/25 07:12:37;;;;;;;8.10;3.70;;;;;;;15.24;49.93;101290.94;4096608;28;20047;-69
2023/05/25 07:14:40;;;;;;;11.00;3.42;;;;;;;15.32;49.33;101294.50;4096346;29;20471;-69
2023/05/25 07:16:43;;;;;;;13.52;4.65;;;;;;;15.63;48.50;101297.34;4093994;29;20494;-69
2023/05/25 07:18:46;;;;;;;9.35;3.83;;;;;;;15.64;48.04;101280.78;4094625;29;20074;-68
2023/05/25 07:20:50;;;;;;;11.75;3.90;;;;;;;15.62;48.73;101285.09;4096991;28;20401;-69
2023/05/25 07:22:53;;;;;;;11.00;4.22;;;;;;;15.64;47.82;101285.16;4096554;29;20143;-70
2023/05/25 07:24:57;;;;;;;12.80;4.10;;;;;;;15.68;49.05;101279.03;4112528;28;20078;-68
2023/05/25 07:27:00;;;;;;;11.05;3.85;;;;;;;15.79;48.31;101277.38;4097562;28;20051;-68
2023/05/25 07:29:03;;;;;;;12.68;4.43;;;;;;;15.94;48.39;101281.84;4096609;28;20050;-68
2023/05/25 07:31:06;;;;;;;14.32;4.32;;;;;;;16.05;47.40;101285.41;4095978;28;20035;-71
2023/05/25 07:33:09;;;;;;;16.55;5.25;;;;;;;16.10;47.49;101281.94;4096992;28;20145;-68
2023/05/25 07:35:12;;;;;;;14.07;4.60;;;;;;;16.08;47.55;101281.03;4112032;28;20788;-68
2023/05/25 07:37:15;;;;;;;10.32;3.85;;;;;;;16.11;47.81;101284.56;4097018;28;20126;-68
2023/05/25 07:39:18;;;;;;;15.10;4.78;;;;;;;16.27;46.82;101280.25;4114228;28;20049;-68
2023/05/25 07:41:22;;;;;;;14.00;4.20;;;;;;;16.39;46.97;101282.91;4100866;28;20042;-69
2023/05/25 07:43:25;;;;;;;16.75;4.88;;;;;;;16.44;47.21;101285.56;4099892;28;20181;-68
2023/05/25 07:45:28;;;;;;;11.68;4.35;;;;;;;16.58;46.30;101280.34;4115204;28;20513;-68
2023/05/25 07:47:30;;;;;;;18.52;5.40;;;;;;;16.65;45.20;101287.38;4100568;28;20433;-68
2023/05/25 07:49:33;;;;;;;10.32;4.25;;;;;;;16.74;44.54;101292.63;4099408;29;20074;-68
2023/05/25 07:51:36;;;;;;;14.07;4.38;;;;;;;16.87;44.08;101292.66;4100067;28;20040;-68
2023/05/25 07:53:41;;;;;;;15.07;4.07;;;;;;;16.94;44.01;101294.47;4098338;29;20043;-68
2023/05/25 07:55:44;;;;;;;12.35;4.40;;;;;;;16.91;44.78;101291.84;4112029;28;20122;-68
2023/05/25 07:57:48;;;;;;;11.57;4.63;;;;;;;17.16;43.03;101290.09;4100880;28;20175;-68
2023/05/25 07:59:51;;;;;;;11.45;4.22;;;;;;;17.21;43.17;101287.47;4099026;29;20131;-68
2023/05/25 08:01:54;;;;;;;18.52;4.60;;;;;;;17.19;43.47;101286.59;4099886;28;20438;-69
2023/05/25 08:03:57;;;;;;;12.88;4.38;;;;;;;17.05;44.38;101290.06;4100283;29;20498;-68
2023/05/25 08:06:00;;;;;;;12.98;3.80;;;;;;;17.09;44.44;101283.09;4100373;28;20071;-68
2023/05/25 08:08:03;;;;;;;12.48;3.65;;;;;;;17.36;43.48;101276.06;4100020;29;20035;-68
2023/05/25 08:10:08;;;;;;;16.70;4.18;;;;;;;17.47;44.39;101286.59;4099822;28;20043;-69
2023/05/25 08:12:11;;;;;;;11.35;3.97;;;;;;;17.67;43.33;101287.44;4097451;28;20122;-68
2023/05/25 08:14:35;;;;;;;14.00;4.35;;;;;;;17.71;43.34;101283.94;4098827;29;20058;-68
2023/05/25 08:16:38;;;;;;;10.68;4.28;;;;;;;17.88;42.83;101283.00;4098148;28;20047;-68
2023/05/25 08:18:45;;;;;;;12.30;4.53;;;;;;;17.78;43.05;101279.50;4114800;28;20073;-68
2023/05/25 08:20:48;;;;;;;10.18;3.80;;;;;;;17.87;42.15;101273.34;4096580;29;20167;-68
2023/05/25 08:22:52;;;;;;;11.32;4.38;;;;;;;17.82;42.49;101280.41;4097612;29;20047;-68
2023/05/25 08:24:55;;;;;;;12.18;3.42;;;;;;;17.82;43.30;101288.28;4099782;29;20119;-68
2023/05/25 08:26:58;;;;;;;15.80;4.65;;;;;;;17.91;42.19;101278.63;4098035;29;20510;-68
2023/05/25 08:29:01;;;;;;;13.90;4.75;;;;;;;18.18;41.52;101287.31;4114301;28;20034;-68
2023/05/25 08:31:05;;;;;;;13.73;4.00;;;;;;;18.23;40.98;101292.56;4095639;29;20039;-69
2023/05/25 08:33:08;;;;;;;17.05;4.65;;;;;;;18.12;41.33;101282.06;4096675;29;20465;-68
2023/05/25 08:35:12;;;;;;;14.68;5.55;;;;;;;18.13;42.12;101292.56;4096642;29;20055;-68
2023/05/25 08:37:16;;;;;;;;;;;;;;;18.20;40.93;101295.22;4098166;28;20070;-69
2023/05/25 08:39:19;;;;;;;10.40;4.18;;;;;;;18.23;40.84;101295.19;4096800;28;19926;-68
2023/05/25 08:41:22;;;;;;;14.23;4.40;;;;;;;18.32;41.07;101287.25;4099475;28;20140;-69
2023/05/25 08:43:25;;;;;;;10.70;3.97;;;;;;;18.27;41.10;101295.16;4097047;28;20043;-69
2023/05/25 08:45:28;;;;;;;14.00;4.55;;;;;;;18.39;41.90;101296.88;4098323;28;20050;-69
2023/05/25 08:47:43;;;;;;;11.38;4.90;;;;;;;18.54;40.32;101287.16;4098881;28;20135;-68
2023/05/25 08:49:49;;;;;;;14.77;4.07;;;;;;;18.53;41.08;101291.53;4096722;28;20067;-68
2023/05/25 08:51:53;;;;;;;13.40;4.00;;;;;;;18.58;41.37;101276.56;4097811;28;20370;-68
2023/05/25 08:54:01;;;;;;;15.30;4.55;;;;;;;18.72;39.95;101294.06;4114085;28;20134;-68
2023/05/25 08:56:10;;;;;;;12.80;5.00;;;;;;;18.64;40.48;101291.47;4099099;28;20445;-67
2023/05/25 08:58:17;;;;;;;10.88;4.18;;;;;;;18.60;41.14;101284.47;4099829;29;20458;-68
2023/05/25 09:00:25;;;;;;;12.48;3.97;;;;;;;18.68;41.36;101285.31;4099144;29;20050;-68
2023/05/25 09:02:34;;;;;;;11.13;4.15;;;;;;;18.90;40.38;101291.34;4096974;28;20050;-67
2023/05/25 09:04:39;;;;;;;10.80;4.18;;;;;;;18.86;40.42;101289.59;4089027;28;20047;-68
2023/05/25 09:06:44;;;;;;;11.68;4.32;;;;;;;18.80;41.27;101287.84;4087589;29;20181;-68
2023/05/25 09:09:04;;;;;;;14.23;4.35;;;;;;;18.86;40.61;101286.97;4112149;28;20493;-68
2023/05/25 09:11:07;;;;;;;9.50;3.95;;;;;;;18.98;40.66;101281.63;4099415;29;20067;-67
2023/05/25 09:13:12;;;;;;;9.45;3.85;;;;;;;19.04;40.82;101288.63;4096562;29;20050;-68
2023/05/25 09:15:24;;;;;;;14.63;5.03;;;;;;;19.19;39.38;101282.34;4098900;28;20047;-68
2023/05/25 09:17:27;;;;;;;14.07;4.30;;;;;;;19.25;39.35;101281.41;4097550;29;20082;-67
2023/05/25 09:19:30;;;;;;;13.00;4.25;;;;;;;19.26;40.29;101285.78;4098779;28;20039;-68
2023/05/25 09:21:35;;;;;;;9.27;3.47;;;;;;;19.39;39.83;101279.53;4098720;28;20035;-68
2023/05/25 09:23:38;;;;;;;12.65;5.30;;;;;;;19.47;39.33;101287.38;4098229;29;20102;-68
2023/05/25 09:25:41;;;;;;;11.38;4.40;;;;;;;19.52;38.84;101296.09;4112533;28;20043;-67
2023/05/25 09:27:45;;;;;;;9.60;4.30;;;;;;;19.37;39.29;101286.56;4111462;28;20098;-66
2023/05/25 09:29:49;;;;;;;11.98;4.38;;;;;;;19.44;39.62;101285.63;4097563;28;20520;-67
2023/05/25 09:31:52;;;;;;;15.07;5.35;;;;;;;19.44;39.45;101280.34;4097629;28;20039;-67
2023/05/25 09:33:58;;;;;;;9.35;3.80;;;;;;;19.58;39.43;101274.06;4097272;28;20039;-67
2023/05/25 09:36:01;;;;;;;11.65;4.40;;;;;;;19.56;40.07;101281.13;4093962;29;20066;-67